ASA508 PAYA-PACV
Flight info
| Callsign | ASA508 |
|---|---|
| Flight time | 0h 37m |
| Altitude | 24000 |
| Route | OCC FORAT |
| Aircraft | B737/M-SDE2E3FGHIRWXY/LB1 |
Departure
| Time | 2026-04-15 23:37 |
|---|---|
| Airport | Yakutat Airport (PAYA) |
Arrival
| Time | 2026-04-16 00:14 |
|---|---|
| Airport | Merle K (Mudhole) Smith Airport (PACV) |
| Time | Latitude | Longitude | Altitude | Speed | Heading |
|---|---|---|---|---|---|
| 2026-04-15 23:15 | 59.50798 | -139.66730 | 48 ft | 0 kts | 332° |
| 2026-04-15 23:21 | 59.50798 | -139.66729 | 48 ft | 0 kts | 332° |
| 2026-04-15 23:23 | 59.50797 | -139.66729 | 48 ft | 0 kts | 331° |
| 2026-04-15 23:33 | 59.50804 | -139.66718 | 48 ft | 3 kts | 55° |
| 2026-04-15 23:33 | 59.50775 | -139.66688 | 46 ft | 7 kts | 169° |
| 2026-04-15 23:34 | 59.50733 | -139.66643 | 48 ft | 4 kts | 141° |
| 2026-04-15 23:34 | 59.50708 | -139.66602 | 46 ft | 5 kts | 138° |
| 2026-04-15 23:34 | 59.50679 | -139.66548 | 46 ft | 8 kts | 137° |
| 2026-04-15 23:36 | 59.50861 | -139.66077 | 45 ft | 6 kts | 228° |
| 2026-04-15 23:36 | 59.50858 | -139.66084 | 44 ft | 0 kts | 224° |
| 2026-04-15 23:36 | 59.50857 | -139.66084 | 45 ft | 4 kts | 224° |
| 2026-04-15 23:36 | 59.50600 | -139.66570 | 44 ft | 99 kts | 225° |
| 2026-04-15 23:37 | 59.49920 | -139.67889 | 163 ft | 166 kts | 224° |
| 2026-04-15 23:37 | 59.49067 | -139.69559 | 1034 ft | 180 kts | 228° |
| 2026-04-15 23:37 | 59.48573 | -139.71806 | 2121 ft | 193 kts | 267° |
| 2026-04-15 23:37 | 59.48986 | -139.74438 | 2826 ft | 218 kts | 303° |
| 2026-04-15 23:38 | 59.50214 | -139.76334 | 3581 ft | 234 kts | 339° |
| 2026-04-15 23:38 | 59.51833 | -139.76952 | 4534 ft | 240 kts | 343° |
| 2026-04-15 23:38 | 59.53230 | -139.78759 | 5334 ft | 253 kts | 305° |
| 2026-04-15 23:38 | 59.53882 | -139.82010 | 6284 ft | 261 kts | 282° |
| 2026-04-15 23:39 | 59.54288 | -139.85539 | 7377 ft | 267 kts | 282° |
| 2026-04-15 23:39 | 59.54721 | -139.89131 | 8467 ft | 271 kts | 283° |
| 2026-04-15 23:39 | 59.55194 | -139.92755 | 9547 ft | 275 kts | 284° |
| 2026-04-15 23:39 | 59.55710 | -139.96431 | 10544 ft | 283 kts | 284° |
| 2026-04-15 23:40 | 59.56283 | -140.00321 | 10961 ft | 311 kts | 285° |
| 2026-04-15 23:40 | 59.56934 | -140.04564 | 11461 ft | 331 kts | 285° |
| 2026-04-15 23:40 | 59.57627 | -140.08929 | 12422 ft | 335 kts | 286° |
| 2026-04-15 23:40 | 59.58336 | -140.13299 | 13520 ft | 335 kts | 286° |
| 2026-04-15 23:41 | 59.59057 | -140.17689 | 14489 ft | 338 kts | 287° |
| 2026-04-15 23:41 | 59.59791 | -140.22117 | 15390 ft | 342 kts | 287° |
| 2026-04-15 23:41 | 59.60534 | -140.26594 | 16310 ft | 345 kts | 287° |
| 2026-04-15 23:41 | 59.61285 | -140.31115 | 17197 ft | 348 kts | 287° |
| 2026-04-15 23:42 | 59.62042 | -140.35668 | 18068 ft | 351 kts | 287° |
| 2026-04-15 23:42 | 59.62806 | -140.40273 | 18897 ft | 354 kts | 287° |
| 2026-04-15 23:42 | 59.63577 | -140.44920 | 19698 ft | 357 kts | 287° |
| 2026-04-15 23:42 | 59.64352 | -140.49609 | 20471 ft | 361 kts | 287° |
| 2026-04-15 23:43 | 59.64869 | -140.52741 | 20972 ft | 363 kts | 287° |
| 2026-04-15 23:43 | 59.65653 | -140.57500 | 21762 ft | 364 kts | 287° |
| 2026-04-15 23:43 | 59.66430 | -140.62229 | 22727 ft | 359 kts | 287° |
| 2026-04-15 23:43 | 59.67196 | -140.66894 | 23579 ft | 358 kts | 287° |
| 2026-04-15 23:44 | 59.67959 | -140.71563 | 23931 ft | 355 kts | 287° |
| 2026-04-15 23:44 | 59.68717 | -140.76214 | 23986 ft | 355 kts | 287° |
| 2026-04-15 23:44 | 59.69468 | -140.80833 | 23995 ft | 351 kts | 287° |
| 2026-04-15 23:44 | 59.70211 | -140.85419 | 24011 ft | 349 kts | 287° |
| 2026-04-15 23:45 | 59.70953 | -140.90009 | 24010 ft | 350 kts | 287° |
| 2026-04-15 23:45 | 59.71694 | -140.94607 | 24011 ft | 351 kts | 287° |
| 2026-04-15 23:45 | 59.72435 | -140.99214 | 24009 ft | 351 kts | 287° |
| 2026-04-15 23:45 | 59.73175 | -141.03831 | 24006 ft | 351 kts | 287° |
| 2026-04-15 23:46 | 59.73913 | -141.08443 | 24002 ft | 351 kts | 287° |
| 2026-04-15 23:46 | 59.74650 | -141.13061 | 24000 ft | 351 kts | 287° |
| 2026-04-15 23:46 | 59.75384 | -141.17670 | 23993 ft | 350 kts | 287° |
| 2026-04-15 23:46 | 59.76114 | -141.22272 | 23990 ft | 349 kts | 286° |
| 2026-04-15 23:47 | 59.76841 | -141.26865 | 23992 ft | 349 kts | 286° |
| 2026-04-15 23:47 | 59.77565 | -141.31448 | 23998 ft | 348 kts | 286° |
| 2026-04-15 23:47 | 59.78286 | -141.36022 | 24001 ft | 347 kts | 286° |
| 2026-04-15 23:47 | 59.79004 | -141.40589 | 23999 ft | 347 kts | 286° |
| 2026-04-15 23:48 | 59.79721 | -141.45163 | 24001 ft | 346 kts | 286° |
| 2026-04-15 23:48 | 59.80435 | -141.49734 | 24000 ft | 347 kts | 286° |
| 2026-04-15 23:48 | 59.81147 | -141.54306 | 24000 ft | 347 kts | 286° |
| 2026-04-15 23:48 | 59.81859 | -141.58884 | 23998 ft | 347 kts | 286° |
| 2026-04-15 23:49 | 59.82570 | -141.63470 | 23995 ft | 347 kts | 286° |
| 2026-04-15 23:49 | 59.83279 | -141.68053 | 23993 ft | 347 kts | 286° |
| 2026-04-15 23:49 | 59.83986 | -141.72640 | 23989 ft | 347 kts | 286° |
| 2026-04-15 23:49 | 59.84692 | -141.77231 | 23991 ft | 347 kts | 286° |
| 2026-04-15 23:50 | 59.85396 | -141.81818 | 23992 ft | 347 kts | 285° |
| 2026-04-15 23:50 | 59.86099 | -141.86409 | 23991 ft | 347 kts | 285° |
| 2026-04-15 23:50 | 59.86799 | -141.90999 | 23989 ft | 347 kts | 285° |
| 2026-04-15 23:51 | 59.88195 | -142.00184 | 23987 ft | 347 kts | 285° |
| 2026-04-15 23:51 | 59.88890 | -142.04784 | 23990 ft | 347 kts | 285° |
| 2026-04-15 23:51 | 59.89584 | -142.09384 | 23991 ft | 346 kts | 285° |
| 2026-04-15 23:51 | 59.90267 | -142.13919 | 23990 ft | 346 kts | 285° |
| 2026-04-15 23:52 | 59.90956 | -142.18513 | 23991 ft | 347 kts | 285° |
| 2026-04-15 23:52 | 59.91645 | -142.23118 | 23991 ft | 347 kts | 285° |
| 2026-04-15 23:52 | 59.92333 | -142.27724 | 23991 ft | 347 kts | 285° |
| 2026-04-15 23:52 | 59.93018 | -142.32329 | 23991 ft | 347 kts | 285° |
| 2026-04-15 23:53 | 59.93702 | -142.36933 | 23993 ft | 346 kts | 285° |
| 2026-04-15 23:53 | 59.94384 | -142.41544 | 23990 ft | 346 kts | 285° |
| 2026-04-15 23:53 | 59.95065 | -142.46156 | 23990 ft | 346 kts | 285° |
| 2026-04-15 23:53 | 59.95743 | -142.50764 | 23993 ft | 346 kts | 285° |
| 2026-04-15 23:54 | 59.96422 | -142.55376 | 23988 ft | 346 kts | 285° |
| 2026-04-15 23:54 | 59.97096 | -142.59984 | 23991 ft | 346 kts | 285° |
| 2026-04-15 23:54 | 59.97769 | -142.64593 | 23991 ft | 345 kts | 285° |
| 2026-04-15 23:54 | 59.98439 | -142.69194 | 23989 ft | 345 kts | 285° |
| 2026-04-15 23:55 | 59.99107 | -142.73794 | 23993 ft | 345 kts | 285° |
| 2026-04-15 23:55 | 59.99772 | -142.78392 | 23991 ft | 344 kts | 285° |
| 2026-04-15 23:55 | 60.00435 | -142.82983 | 23991 ft | 343 kts | 285° |
| 2026-04-15 23:55 | 60.01096 | -142.87572 | 23984 ft | 344 kts | 285° |
| 2026-04-15 23:56 | 60.01756 | -142.92166 | 23990 ft | 344 kts | 285° |
| 2026-04-15 23:56 | 60.02414 | -142.96770 | 23995 ft | 345 kts | 285° |
| 2026-04-15 23:56 | 60.03072 | -143.01379 | 23994 ft | 345 kts | 284° |
| 2026-04-15 23:56 | 60.03722 | -143.05941 | 24004 ft | 332 kts | 284° |
| 2026-04-15 23:57 | 60.04328 | -143.10200 | 23988 ft | 305 kts | 284° |
| 2026-04-15 23:57 | 60.04887 | -143.14131 | 23959 ft | 285 kts | 284° |
| 2026-04-15 23:57 | 60.05419 | -143.17899 | 23969 ft | 281 kts | 284° |
| 2026-04-15 23:57 | 60.05968 | -143.21807 | 24004 ft | 302 kts | 284° |
| 2026-04-15 23:58 | 60.06554 | -143.25996 | 24013 ft | 324 kts | 284° |
| 2026-04-15 23:58 | 60.07180 | -143.30473 | 24011 ft | 343 kts | 284° |
| 2026-04-15 23:58 | 60.07827 | -143.35112 | 23948 ft | 345 kts | 284° |
| 2026-04-15 23:58 | 60.08470 | -143.39722 | 23553 ft | 340 kts | 284° |
| 2026-04-15 23:59 | 60.09106 | -143.44282 | 23045 ft | 337 kts | 284° |
| 2026-04-15 23:59 | 60.09730 | -143.48775 | 22494 ft | 333 kts | 284° |
| 2026-04-15 23:59 | 60.10344 | -143.53212 | 21955 ft | 329 kts | 284° |
| 2026-04-15 23:59 | 60.10949 | -143.57604 | 21410 ft | 325 kts | 284° |
| 2026-04-16 00:00 | 60.11547 | -143.61957 | 20872 ft | 322 kts | 284° |
| 2026-04-16 00:00 | 60.12138 | -143.66271 | 20334 ft | 320 kts | 284° |
| 2026-04-16 00:00 | 60.12724 | -143.70561 | 19799 ft | 318 kts | 284° |
| 2026-04-16 00:00 | 60.13304 | -143.74816 | 19271 ft | 316 kts | 284° |
| 2026-04-16 00:01 | 60.13874 | -143.79002 | 18736 ft | 314 kts | 284° |
| 2026-04-16 00:01 | 60.14447 | -143.83222 | 18207 ft | 312 kts | 284° |
| 2026-04-16 00:01 | 60.15014 | -143.87418 | 17679 ft | 311 kts | 284° |
| 2026-04-16 00:01 | 60.15578 | -143.91603 | 17159 ft | 310 kts | 284° |
| 2026-04-16 00:02 | 60.16139 | -143.95775 | 16626 ft | 309 kts | 283° |
| 2026-04-16 00:02 | 60.16698 | -143.99932 | 16103 ft | 308 kts | 283° |
| 2026-04-16 00:02 | 60.17254 | -144.04087 | 15576 ft | 307 kts | 283° |
| 2026-04-16 00:02 | 60.17805 | -144.08220 | 15055 ft | 306 kts | 283° |
| 2026-04-16 00:03 | 60.18354 | -144.12340 | 14531 ft | 305 kts | 283° |
| 2026-04-16 00:03 | 60.18998 | -144.16409 | 13823 ft | 310 kts | 290° |
| 2026-04-16 00:03 | 60.19897 | -144.20390 | 13156 ft | 314 kts | 293° |
| 2026-04-16 00:03 | 60.20863 | -144.24326 | 12597 ft | 313 kts | 294° |
| 2026-04-16 00:04 | 60.21828 | -144.28234 | 12074 ft | 311 kts | 294° |
| 2026-04-16 00:04 | 60.22774 | -144.32110 | 11530 ft | 307 kts | 294° |
| 2026-04-16 00:04 | 60.23700 | -144.35960 | 11067 ft | 304 kts | 293° |
| 2026-04-16 00:04 | 60.24613 | -144.39793 | 10535 ft | 303 kts | 294° |
| 2026-04-16 00:05 | 60.25506 | -144.43571 | 10313 ft | 292 kts | 294° |
| 2026-04-16 00:05 | 60.26360 | -144.47210 | 10140 ft | 281 kts | 294° |
| 2026-04-16 00:05 | 60.27177 | -144.50697 | 10005 ft | 270 kts | 294° |
| 2026-04-16 00:05 | 60.27972 | -144.54110 | 9639 ft | 269 kts | 294° |
| 2026-04-16 00:06 | 60.28761 | -144.57505 | 9295 ft | 267 kts | 294° |
| 2026-04-16 00:06 | 60.29549 | -144.60898 | 8932 ft | 267 kts | 294° |
| 2026-04-16 00:06 | 60.30337 | -144.64303 | 8544 ft | 268 kts | 294° |
| 2026-04-16 00:06 | 60.31124 | -144.67705 | 8177 ft | 267 kts | 294° |
| 2026-04-16 00:07 | 60.31910 | -144.71102 | 7799 ft | 268 kts | 294° |
| 2026-04-16 00:07 | 60.32695 | -144.74512 | 7429 ft | 267 kts | 294° |
| 2026-04-16 00:07 | 60.33481 | -144.77904 | 7068 ft | 267 kts | 296° |
| 2026-04-16 00:07 | 60.34394 | -144.81139 | 6782 ft | 265 kts | 300° |
| 2026-04-16 00:08 | 60.35298 | -144.84407 | 6445 ft | 267 kts | 296° |
| 2026-04-16 00:08 | 60.36103 | -144.87777 | 6094 ft | 266 kts | 294° |
| 2026-04-16 00:08 | 60.36855 | -144.91187 | 5741 ft | 265 kts | 293° |
| 2026-04-16 00:08 | 60.37590 | -144.94588 | 5392 ft | 264 kts | 292° |
| 2026-04-16 00:09 | 60.38323 | -144.97976 | 5049 ft | 262 kts | 293° |
| 2026-04-16 00:09 | 60.39054 | -145.01343 | 4701 ft | 261 kts | 293° |
| 2026-04-16 00:09 | 60.39781 | -145.04680 | 4358 ft | 256 kts | 293° |
| 2026-04-16 00:09 | 60.40486 | -145.07914 | 4030 ft | 247 kts | 293° |
| 2026-04-16 00:10 | 60.41163 | -145.11013 | 3712 ft | 235 kts | 293° |
| 2026-04-16 00:10 | 60.41808 | -145.13968 | 3391 ft | 225 kts | 293° |
| 2026-04-16 00:10 | 60.42427 | -145.16799 | 3093 ft | 215 kts | 293° |
| 2026-04-16 00:10 | 60.43027 | -145.19534 | 2817 ft | 209 kts | 293° |
| 2026-04-16 00:11 | 60.43597 | -145.22135 | 2534 ft | 196 kts | 293° |
| 2026-04-16 00:11 | 60.44135 | -145.24584 | 2297 ft | 187 kts | 293° |
| 2026-04-16 00:11 | 60.44661 | -145.26979 | 2055 ft | 186 kts | 294° |
| 2026-04-16 00:11 | 60.45187 | -145.29375 | 1811 ft | 186 kts | 294° |
| 2026-04-16 00:12 | 60.45708 | -145.31741 | 1566 ft | 186 kts | 294° |
| 2026-04-16 00:12 | 60.46234 | -145.34134 | 1323 ft | 185 kts | 294° |
| 2026-04-16 00:12 | 60.46742 | -145.36434 | 1107 ft | 164 kts | 294° |
| 2026-04-16 00:12 | 60.47183 | -145.38434 | 859 ft | 147 kts | 294° |
| 2026-04-16 00:13 | 60.47580 | -145.40232 | 665 ft | 133 kts | 295° |
| 2026-04-16 00:13 | 60.47951 | -145.41910 | 516 ft | 130 kts | 294° |
| 2026-04-16 00:13 | 60.48325 | -145.43608 | 343 ft | 132 kts | 295° |
| 2026-04-16 00:13 | 60.48694 | -145.45275 | 153 ft | 130 kts | 294° |
| 2026-04-16 00:14 | 60.49052 | -145.46901 | 49 ft | 117 kts | 294° |
| 2026-04-16 00:14 | 60.49326 | -145.48129 | 52 ft | 74 kts | 294° |
| 2026-04-16 00:14 | 60.49475 | -145.48795 | 52 ft | 30 kts | 294° |
| 2026-04-16 00:14 | 60.49508 | -145.48942 | 53 ft | 8 kts | 294° |
| 2026-04-16 00:15 | 60.49560 | -145.49160 | 54 ft | 26 kts | 297° |
| 2026-04-16 00:15 | 60.49630 | -145.49482 | 50 ft | 22 kts | 294° |
| 2026-04-16 00:15 | 60.49640 | -145.49662 | 50 ft | 6 kts | 186° |
| 2026-04-16 00:15 | 60.49637 | -145.49663 | 53 ft | 0 kts | 186° |
| 2026-04-16 00:16 | 60.49614 | -145.49543 | 55 ft | 18 kts | 92° |
| 2026-04-16 00:17 | 60.49569 | -145.49201 | 52 ft | 25 kts | 112° |
| 2026-04-16 00:17 | 60.49506 | -145.48906 | 52 ft | 22 kts | 113° |
| 2026-04-16 00:17 | 60.49442 | -145.48607 | 51 ft | 26 kts | 114° |
| 2026-04-16 00:17 | 60.49368 | -145.48266 | 49 ft | 26 kts | 114° |
| 2026-04-16 00:18 | 60.49297 | -145.47946 | 53 ft | 24 kts | 114° |
| 2026-04-16 00:18 | 60.49235 | -145.47664 | 47 ft | 18 kts | 114° |
| 2026-04-16 00:18 | 60.49258 | -145.47526 | 50 ft | 11 kts | 29° |
| 2026-04-16 00:18 | 60.49327 | -145.47448 | 48 ft | 11 kts | 26° |
| 2026-04-16 00:19 | 60.49401 | -145.47404 | 48 ft | 11 kts | 12° |
| 2026-04-16 00:19 | 60.49438 | -145.47356 | 53 ft | 4 kts | 72° |
| 2026-04-16 00:19 | 60.49428 | -145.47295 | 48 ft | 5 kts | 120° |
| 2026-04-16 00:19 | 60.49417 | -145.47261 | 51 ft | 1 kts | 123° |
| 2026-04-16 00:20 | 60.49416 | -145.47258 | 51 ft | 0 kts | 122° |